Time;durP1;ratioP1;P1;durP2;ratioP2;P2;SDS_P1;SDS_P2;PMS_P1;PMS_P2;Temp;Humidity;BMP_temperature;BMP_pressure;BME280_temperature;BME280_humidity;BME280_pressure;Samples;Min_cycle;Max_cycle;Signal;HPM_P1;HPM_P2
2021/10/03 00:00:03;;;;;;;27.70;22.95;;;;;;;9.62;90.47;99511.33;1789418;78;22003;-65
2021/10/03 00:02:31;;;;;;;28.50;23.05;;;;;;;9.60;90.50;99517.06;1770015;78;21332;-65
2021/10/03 00:05:00;;;;;;;26.90;23.00;;;;;;;9.58;90.51;99516.31;1809201;78;22200;-65
2021/10/03 00:07:29;;;;;;;29.12;23.83;;;;;;;9.57;90.52;99518.52;1812827;78;21995;-65
2021/10/03 00:09:56;;;;;;;28.35;22.58;;;;;;;9.55;90.61;99508.64;1801762;78;20910;-65
2021/10/03 00:12:22;;;;;;;26.17;23.10;;;;;;;9.53;90.64;99510.45;1804654;78;20945;-65
2021/10/03 00:14:50;;;;;;;27.30;23.03;;;;;;;9.55;90.79;99512.55;1791566;79;20974;-65
2021/10/03 00:17:17;;;;;;;28.30;23.83;;;;;;;9.54;90.72;99522.56;1796814;78;22511;-65
2021/10/03 00:19:44;;;;;;;30.15;24.82;;;;;;;9.52;90.73;99516.59;1787726;78;22101;-65
2021/10/03 00:22:11;;;;;;;28.02;23.42;;;;;;;9.53;90.78;99520.88;1782661;78;21051;-65
2021/10/03 00:24:38;;;;;;;29.95;24.37;;;;;;;9.51;90.71;99522.70;1804222;79;20953;-65
2021/10/03 00:27:05;;;;;;;30.82;24.40;;;;;;;9.50;90.65;99519.73;1792176;79;21547;-65
2021/10/03 00:29:44;;;;;;;;;;;;;;;9.48;90.69;99513.73;1794444;78;21904;-65
2021/10/03 00:32:11;;;;;;;31.68;24.80;;;;;;;9.49;90.90;99514.11;1784316;78;20121;-65
2021/10/03 00:34:38;;;;;;;29.80;24.10;;;;;;;9.51;90.95;99522.70;1797653;79;21052;-65
2021/10/03 00:37:05;;;;;;;24.85;22.17;;;;;;;9.52;91.01;99520.51;1801920;79;21543;-65
2021/10/03 00:39:32;;;;;;;27.40;24.43;;;;;;;9.53;90.98;99519.58;1780456;78;21006;-65
2021/10/03 00:41:59;;;;;;;30.02;24.32;;;;;;;9.54;91.05;99522.56;1786880;79;21114;-65
2021/10/03 00:44:27;;;;;;;33.75;24.37;;;;;;;9.57;91.06;99519.81;1811261;78;21048;-65
2021/10/03 00:46:53;;;;;;;30.25;23.73;;;;;;;9.61;91.21;99522.69;1800378;79;20966;-65
2021/10/03 00:49:20;;;;;;;30.62;23.52;;;;;;;9.64;91.14;99521.23;1796206;79;20968;-65
2021/10/03 00:51:47;;;;;;;29.77;23.33;;;;;;;9.65;91.08;99516.86;1790327;79;20977;-65
2021/10/03 00:54:13;;;;;;;27.87;22.47;;;;;;;9.67;91.06;99516.80;1811214;78;21853;-65
2021/10/03 00:56:40;;;;;;;28.07;22.87;;;;;;;9.68;91.00;99523.70;1788291;79;21032;-65
2021/10/03 00:59:07;;;;;;;28.47;23.47;;;;;;;9.67;90.96;99519.41;1798968;78;21057;-65
2021/10/03 01:01:34;;;;;;;28.95;22.95;;;;;;;9.68;90.95;99523.70;1791916;78;21560;-65
2021/10/03 01:04:01;;;;;;;28.95;23.80;;;;;;;9.67;90.94;99522.02;1780617;79;20910;-65
2021/10/03 01:06:28;;;;;;;33.58;25.40;;;;;;;9.68;91.09;99523.70;1772749;80;21496;-65
2021/10/03 01:08:55;;;;;;;30.45;23.15;;;;;;;9.68;91.06;99510.66;1784897;79;20970;-65
2021/10/03 01:11:21;;;;;;;36.00;24.50;;;;;;;9.69;91.14;99505.82;1780841;79;21002;-65
2021/10/03 01:13:48;;;;;;;29.57;23.67;;;;;;;9.69;91.17;99503.21;1779824;80;22291;-65
2021/10/03 01:16:17;;;;;;;29.35;24.40;;;;;;;9.70;91.23;99503.62;1784070;78;21543;-65
2021/10/03 01:18:44;;;;;;;30.65;23.22;;;;;;;9.71;91.22;99497.48;1765203;80;21905;-65
2021/10/03 01:21:11;;;;;;;27.93;24.65;;;;;;;9.72;91.18;99493.94;1765231;80;20925;-65
2021/10/03 01:23:38;;;;;;;32.38;24.70;;;;;;;9.72;91.24;99483.52;1763280;79;21097;-65
2021/10/03 01:26:05;;;;;;;31.33;25.02;;;;;;;9.73;91.32;99479.54;1775325;80;21100;-65
2021/10/03 01:28:32;;;;;;;31.53;23.37;;;;;;;9.77;91.36;99473.71;1768022;80;21029;-65
2021/10/03 01:30:59;;;;;;;28.55;22.22;;;;;;;9.78;91.32;99464.99;1765785;80;21438;-65
2021/10/03 01:33:27;;;;;;;28.60;24.75;;;;;;;9.78;91.35;99466.30;1774856;80;21493;-65
2021/10/03 01:35:55;;;;;;;32.73;23.35;;;;;;;9.79;91.28;99458.84;1778594;78;21049;-65
2021/10/03 01:38:23;;;;;;;29.52;23.83;;;;;;;9.81;91.27;99461.77;1762003;80;21005;-65
2021/10/03 01:40:52;;;;;;;26.40;22.85;;;;;;;9.81;91.27;99457.02;1767223;80;21560;-65
2021/10/03 01:43:19;;;;;;;29.55;24.45;;;;;;;9.83;91.25;99460.37;1765145;80;21835;-65
2021/10/03 01:45:46;;;;;;;29.48;23.05;;;;;;;9.82;91.32;99449.11;1760381;80;21025;-65
2021/10/03 01:48:20;;;;;;;28.83;23.55;;;;;;;9.83;91.29;99451.25;1762436;80;20966;-65
2021/10/03 01:51:04;;;;;;;27.17;22.93;;;;;;;9.81;91.29;99449.20;1772177;78;21583;-65
2021/10/03 01:53:45;;;;;;;30.05;23.60;;;;;;;9.80;91.28;99453.58;1758073;80;20965;-65
2021/10/03 01:56:13;;;;;;;28.27;22.20;;;;;;;9.78;91.27;99449.34;1766943;79;21304;-65
2021/10/03 01:58:47;;;;;;;29.75;23.85;;;;;;;9.79;91.39;99447.11;1765439;79;21017;-66
2021/10/03 02:01:22;;;;;;;30.77;22.70;;;;;;;9.80;91.49;99444.88;1768698;79;21151;-65
2021/10/03 02:04:11;;;;;;;31.23;24.12;;;;;;;9.81;91.49;99446.59;1764643;78;21017;-65
2021/10/03 02:06:44;;;;;;;28.50;24.02;;;;;;;9.83;91.56;99439.52;1725025;81;21062;-65
2021/10/03 02:09:13;;;;;;;33.50;25.90;;;;;;;9.86;91.67;99436.78;1732682;81;21081;-66
2021/10/03 02:11:48;;;;;;;30.70;23.83;;;;;;;9.90;91.73;99440.92;1708668;81;21003;-66
2021/10/03 02:14:17;;;;;;;30.08;24.82;;;;;;;9.94;91.73;99444.21;1751819;80;21565;-66
2021/10/03 02:16:44;;;;;;;32.17;24.37;;;;;;;9.96;91.72;99448.44;1746408;80;20998;-65
2021/10/03 02:19:11;;;;;;;;;;;;;;;9.98;91.65;99441.86;1770999;80;20980;-65
2021/10/03 02:21:38;;;;;;;28.32;23.92;;;;;;;9.99;91.71;99437.84;1758533;79;20567;-66
2021/10/03 02:24:11;;;;;;;34.75;24.52;;;;;;;10.00;91.68;99436.95;1715883;82;21467;-66
2021/10/03 02:26:37;;;;;;;28.10;22.95;;;;;;;10.03;91.67;99439.41;1741802;80;20934;-66
2021/10/03 02:29:04;;;;;;;28.83;23.40;;;;;;;10.04;91.64;99439.77;1704435;82;21075;-66
2021/10/03 02:31:31;;;;;;;26.82;23.92;;;;;;;10.06;91.74;99432.73;1750044;79;20974;-66
2021/10/03 02:33:57;;;;;;;33.95;24.35;;;;;;;10.07;91.69;99429.19;1761441;80;21654;-67
2021/10/03 02:36:24;;;;;;;28.02;23.77;;;;;;;10.09;91.70;99428.66;1748835;80;20907;-66
2021/10/03 02:38:53;;;;;;;28.97;23.63;;;;;;;10.11;91.60;99430.34;1738866;80;20952;-65
2021/10/03 02:41:21;;;;;;;28.38;22.58;;;;;;;10.09;91.54;99426.05;1739844;80;21027;-66
2021/10/03 02:43:53;;;;;;;29.70;23.90;;;;;;;10.08;91.51;99424.38;1716932;81;21084;-65
2021/10/03 02:46:21;;;;;;;26.62;22.58;;;;;;;10.09;91.48;99427.35;1757995;80;21074;-65
2021/10/03 02:48:50;;;;;;;26.05;22.67;;;;;;;10.08;91.42;99418.28;1749226;80;20947;-65
2021/10/03 02:51:20;;;;;;;29.15;22.07;;;;;;;10.05;91.41;99412.79;1746295;80;20936;-65
2021/10/03 02:53:47;;;;;;;27.27;23.20;;;;;;;10.05;91.41;99408.88;1751232;79;21028;-65
2021/10/03 02:56:17;;;;;;;28.23;21.70;;;;;;;10.05;91.51;99408.88;1757728;80;21041;-65
2021/10/03 02:58:44;;;;;;;27.10;21.93;;;;;;;10.06;91.48;99406.64;1708089;82;21070;-66
2021/10/03 03:01:11;;;;;;;26.33;21.82;;;;;;;10.04;91.42;99405.86;1753021;80;20956;-66
2021/10/03 03:03:38;;;;;;;27.62;21.12;;;;;;;10.04;91.42;99404.56;1739030;80;20983;-66
2021/10/03 03:06:07;;;;;;;25.70;21.62;;;;;;;10.03;91.39;99400.28;1767356;79;20982;-66
2021/10/03 03:08:34;;;;;;;27.27;21.23;;;;;;;10.02;91.33;99396.42;1781079;78;20993;-66
2021/10/03 03:11:01;;;;;;;28.57;21.02;;;;;;;10.00;91.34;99395.22;1786015;78;21058;-65
2021/10/03 03:13:28;;;;;;;24.25;20.52;;;;;;;10.00;91.30;99396.98;1773200;78;21021;-65
2021/10/03 03:15:56;;;;;;;27.65;21.60;;;;;;;9.98;91.25;99402.27;1751290;80;20970;-66
2021/10/03 03:18:23;;;;;;;25.12;20.82;;;;;;;9.96;91.20;99398.05;1751769;78;21140;-66
2021/10/03 03:21:11;;;;;;;26.20;21.25;;;;;;;9.95;91.21;99403.72;1757739;78;20961;-66
2021/10/03 03:23:38;;;;;;;27.58;20.23;;;;;;;9.94;91.23;99408.57;1740283;80;21144;-66
2021/10/03 03:26:05;;;;;;;26.82;20.50;;;;;;;9.93;91.29;99401.64;1735865;80;21004;-66
2021/10/03 03:28:32;;;;;;;24.05;19.95;;;;;;;9.93;91.32;99404.25;1736807;80;21492;-66
2021/10/03 03:30:59;;;;;;;27.75;20.57;;;;;;;9.95;91.29;99406.33;1730402;80;21073;-66
2021/10/03 03:33:27;;;;;;;28.95;20.43;;;;;;;9.94;91.25;99403.35;1727843;80;20947;-66
2021/10/03 03:35:55;;;;;;;24.80;20.92;;;;;;;9.95;91.25;99404.19;1736458;80;21094;-65
2021/10/03 03:38:21;;;;;;;25.15;19.05;;;;;;;9.94;91.31;99408.57;1724326;81;21010;-65
2021/10/03 03:40:49;;;;;;;26.97;18.80;;;;;;;9.95;91.24;99406.80;1738542;80;20966;-66
2021/10/03 03:43:15;;;;;;;24.75;19.25;;;;;;;9.94;91.23;99405.96;1739446;82;20923;-66
2021/10/03 03:45:42;;;;;;;25.68;20.32;;;;;;;9.93;91.19;99401.64;1735795;80;21082;-65
2021/10/03 03:48:10;;;;;;;25.87;18.73;;;;;;;9.94;91.20;99391.62;1740052;82;21077;-66
2021/10/03 03:50:39;;;;;;;24.50;19.07;;;;;;;9.92;91.13;99396.52;1740712;80;21068;-66
2021/10/03 03:53:05;;;;;;;22.62;18.85;;;;;;;9.91;91.10;99404.78;1738617;81;21048;-66
2021/10/03 03:55:32;;;;;;;23.98;18.60;;;;;;;9.87;91.06;99401.95;1752075;80;21025;-65
2021/10/03 03:57:58;;;;;;;23.23;18.90;;;;;;;9.86;91.02;99400.28;1678798;84;21035;-65
2021/10/03 04:00:25;;;;;;;20.43;17.97;;;;;;;9.85;90.99;99399.87;1679671;83;21460;-66
2021/10/03 04:02:52;;;;;;;23.80;18.30;;;;;;;9.83;91.01;99390.84;1676251;84;21031;-65
2021/10/03 04:05:18;;;;;;;22.00;17.40;;;;;;;9.83;91.01;99396.49;1679323;84;21051;-66
2021/10/03 04:07:45;;;;;;;29.80;18.63;;;;;;;9.83;90.96;99397.80;1674232;83;21059;-65
2021/10/03 04:10:11;;;;;;;24.82;17.98;;;;;;;9.83;90.95;99400.41;1682370;83;20990;-66
2021/10/03 04:12:39;;;;;;;20.93;16.37;;;;;;;9.84;90.92;99400.80;1681755;83;21968;-66
2021/10/03 04:15:08;;;;;;;19.52;15.72;;;;;;;9.82;90.87;99393.51;1679552;84;21593;-66
2021/10/03 04:17:35;;;;;;;21.05;17.32;;;;;;;9.81;90.81;99397.89;1679342;83;21035;-66
2021/10/03 04:20:04;;;;;;;23.00;17.30;;;;;;;9.80;90.80;99395.34;1678300;84;21124;-66
2021/10/03 04:22:31;;;;;;;20.37;16.48;;;;;;;9.78;90.77;99394.59;1667546;85;21736;-65
2021/10/03 04:24:58;;;;;;;20.57;16.15;;;;;;;9.78;90.74;99401.11;1666002;83;21312;-65
2021/10/03 04:27:27;;;;;;;19.82;15.48;;;;;;;9.74;90.63;99400.40;1657855;84;20984;-65
2021/10/03 04:29:54;;;;;;;19.55;15.75;;;;;;;9.72;90.58;99405.30;1671163;84;20995;-66
2021/10/03 04:32:21;;;;;;;20.70;16.13;;;;;;;9.69;90.51;99398.94;1675753;84;20981;-66
2021/10/03 04:34:49;;;;;;;19.05;15.40;;;;;;;9.64;90.48;99389.59;1735341;80;20951;-65
2021/10/03 04:37:16;;;;;;;20.30;16.40;;;;;;;9.61;90.48;99396.26;1734280;81;21047;-66
2021/10/03 04:39:43;;;;;;;24.30;14.75;;;;;;;9.59;90.48;99398.08;1733289;81;20967;-65
2021/10/03 04:42:10;;;;;;;21.33;15.72;;;;;;;9.56;90.44;99396.94;1736960;80;20892;-66
2021/10/03 04:44:37;;;;;;;18.65;14.73;;;;;;;9.54;90.42;99402.67;1735973;81;21057;-64
2021/10/03 04:47:06;;;;;;;20.40;15.23;;;;;;;9.53;90.42;99408.81;1732288;80;21088;-64
2021/10/03 04:49:33;;;;;;;20.77;14.75;;;;;;;9.52;90.41;99408.88;1736106;80;24519;-64
2021/10/03 04:52:00;;;;;;;21.03;14.67;;;;;;;9.51;90.37;99406.73;1669590;84;20959;-64
2021/10/03 04:54:26;;;;;;;17.00;13.68;;;;;;;9.51;90.38;99405.42;1734389;81;20947;-64
2021/10/03 04:56:53;;;;;;;16.32;13.98;;;;;;;9.52;90.36;99408.88;1735019;81;20947;-64
2021/10/03 04:59:19;;;;;;;21.20;15.03;;;;;;;9.53;90.28;99397.55;1734783;81;20911;-65
2021/10/03 05:01:47;;;;;;;21.23;13.20;;;;;;;9.52;90.22;99401.92;1733053;81;21160;-65
2021/10/03 05:04:13;;;;;;;17.00;13.90;;;;;;;9.52;90.19;99399.31;1738064;81;21037;-64
2021/10/03 05:06:41;;;;;;;19.05;13.43;;;;;;;9.54;90.17;99398.77;1735497;81;21557;-65
2021/10/03 05:09:07;;;;;;;18.25;13.28;;;;;;;9.56;90.16;99394.33;1737137;80;21568;-65
2021/10/03 05:11:34;;;;;;;16.62;12.58;;;;;;;9.58;90.10;99391.19;1733992;80;21660;-65
2021/10/03 05:14:06;;;;;;;17.77;12.28;;;;;;;9.61;90.07;99394.95;1738079;81;21070;-66
2021/10/03 05:16:29;;;;;;;15.95;12.20;;;;;;;9.67;90.00;99396.88;1735225;81;21564;-66
2021/10/03 05:18:58;;;;;;;16.90;12.87;;;;;;;9.72;90.00;99396.17;1734436;81;20904;-66
2021/10/03 05:21:24;;;;;;;18.37;12.47;;;;;;;9.78;89.93;99394.59;1733120;80;21697;-66
2021/10/03 05:23:51;;;;;;;20.23;11.95;;;;;;;9.85;89.91;99399.87;1733817;81;20997;-66
2021/10/03 05:26:17;;;;;;;14.50;11.87;;;;;;;9.93;89.87;99393.82;1738958;80;21509;-65
2021/10/03 05:28:53;;;;;;;18.25;11.60;;;;;;;10.01;89.72;99391.67;1735559;81;21096;-66
2021/10/03 05:31:20;;;;;;;14.95;11.57;;;;;;;10.13;89.70;99386.77;1731284;81;21531;-66
2021/10/03 05:33:47;;;;;;;16.93;11.20;;;;;;;10.27;89.64;99386.92;1743596;80;20978;-66
2021/10/03 05:36:13;;;;;;;13.23;10.73;;;;;;;10.51;89.64;99392.19;1719867;81;21553;-66
2021/10/03 05:38:40;;;;;;;14.55;10.70;;;;;;;10.87;89.65;99391.17;1721824;80;21428;-66
2021/10/03 05:41:07;;;;;;;17.57;10.70;;;;;;;11.26;89.32;99391.24;1737534;80;20987;-66
2021/10/03 05:43:37;;;;;;;12.25;10.60;;;;;;;11.53;88.79;99390.61;1726042;81;21061;-66
2021/10/03 05:46:02;;;;;;;13.00;10.35;;;;;;;11.83;88.44;99391.48;1733884;81;21090;-66
2021/10/03 05:48:29;;;;;;;13.88;9.83;;;;;;;12.11;87.87;99393.83;1732287;81;21014;-66
2021/10/03 05:50:55;;;;;;;13.93;9.80;;;;;;;12.38;87.68;99397.05;1740446;80;22404;-66
2021/10/03 05:53:22;;;;;;;13.83;9.75;;;;;;;12.65;87.32;99407.16;1735711;81;21591;-66
2021/10/03 05:55:49;;;;;;;17.00;10.00;;;;;;;12.87;86.88;99407.17;1739273;81;21081;-66
2021/10/03 05:58:16;;;;;;;10.68;9.43;;;;;;;12.95;86.64;99412.78;1738146;82;20939;-66
2021/10/03 06:00:42;;;;;;;13.58;9.48;;;;;;;12.80;86.18;99404.55;1734889;81;21521;-66
2021/10/03 06:03:09;;;;;;;17.67;10.50;;;;;;;12.59;85.91;99414.09;1716894;82;21093;-66
2021/10/03 06:05:36;;;;;;;15.23;10.53;;;;;;;12.39;86.05;99411.84;1711694;82;20990;-66
2021/10/03 06:08:03;;;;;;;10.90;8.93;;;;;;;12.24;86.08;99409.20;1721489;81;21239;-66
2021/10/03 06:10:30;;;;;;;;;;;;;;;12.10;86.27;99409.17;1727084;80;21006;-66
2021/10/03 06:12:57;;;;;;;12.20;9.80;;;;;;;12.00;86.09;99408.02;1736898;82;20087;-66
2021/10/03 06:15:24;;;;;;;13.83;9.47;;;;;;;11.92;86.48;99402.38;1727426;80;21070;-66
2021/10/03 06:17:51;;;;;;;13.53;8.98;;;;;;;11.94;86.71;99408.38;1729880;82;20958;-66
2021/10/03 06:20:18;;;;;;;26.27;9.90;;;;;;;11.97;86.64;99409.03;1722835;82;20940;-66
2021/10/03 06:22:46;;;;;;;12.70;9.77;;;;;;;12.00;86.59;99408.02;1703499;82;21550;-66
2021/10/03 06:25:16;;;;;;;10.90;8.05;;;;;;;12.13;86.61;99408.98;1680067;82;21007;-66
2021/10/03 06:27:43;;;;;;;33.80;26.80;;;;;;;12.69;86.24;99409.99;1691267;82;21083;-66
2021/10/03 06:30:11;;;;;;;16.50;10.63;;;;;;;12.69;86.24;99409.99;1697883;82;21024;-66
2021/10/03 06:32:38;;;;;;;15.43;9.48;;;;;;;12.91;86.16;99404.28;1698860;82;21619;-66
2021/10/03 06:35:06;;;;;;;14.40;10.80;;;;;;;13.11;85.71;99410.90;1725981;82;21053;-66
2021/10/03 06:37:34;;;;;;;17.77;10.98;;;;;;;13.31;85.33;99411.45;1699313;82;21297;-66
2021/10/03 06:40:01;;;;;;;11.48;9.90;;;;;;;13.47;85.26;99408.23;1703164;83;21089;-66
2021/10/03 06:42:28;;;;;;;36.15;31.33;;;;;;;13.70;85.04;99408.53;1703105;83;21024;-65
2021/10/03 06:44:54;;;;;;;77.15;67.95;;;;;;;13.92;84.71;99404.86;1699098;83;20947;-66
2021/10/03 06:47:21;;;;;;;19.40;15.33;;;;;;;14.04;84.42;99409.29;1703000;82;21461;-66
2021/10/03 06:49:48;;;;;;;15.65;11.35;;;;;;;14.29;84.45;99412.91;1721919;82;20918;-66
2021/10/03 06:52:14;;;;;;;19.70;13.58;;;;;;;14.31;83.82;99382.10;1717934;82;21100;-67
2021/10/03 06:54:41;;;;;;;12.73;11.28;;;;;;;14.48;83.67;99404.14;1715629;82;21022;-66
2021/10/03 06:57:08;;;;;;;14.30;10.60;;;;;;;14.41;83.28;99402.87;1696017;82;21563;-66
2021/10/03 06:59:34;;;;;;;9.88;8.85;;;;;;;14.33;83.11;99390.73;1717052;82;21022;-66
2021/10/03 07:02:07;;;;;;;11.05;9.83;;;;;;;14.27;82.85;99393.78;1684088;83;36510;-66
2021/10/03 07:04:34;;;;;;;11.50;8.93;;;;;;;14.23;82.85;99389.69;1700580;82;21123;-66
2021/10/03 07:07:01;;;;;;;14.83;9.65;;;;;;;14.24;82.94;99384.31;1707742;82;20954;-66
2021/10/03 07:09:28;;;;;;;12.73;9.58;;;;;;;14.41;82.84;99385.80;1709548;82;20977;-66
2021/10/03 07:11:54;;;;;;;12.43;8.75;;;;;;;14.46;82.76;99396.83;1707221;83;20993;-66
2021/10/03 07:14:22;;;;;;;11.60;8.40;;;;;;;14.48;82.31;99397.58;1677819;82;21020;-66
2021/10/03 07:16:49;;;;;;;12.23;10.63;;;;;;;14.44;82.20;99396.56;1697907;82;21078;-66
2021/10/03 07:19:15;;;;;;;18.07;11.83;;;;;;;14.41;81.82;99391.05;1711185;82;21008;-67
2021/10/03 07:21:43;;;;;;;13.50;9.30;;;;;;;14.39;82.14;99394.25;1708063;82;21152;-67
2021/10/03 07:24:10;;;;;;;12.13;8.55;;;;;;;14.43;82.06;99397.05;1729221;80;21794;-67
2021/10/03 07:26:37;;;;;;;10.80;9.10;;;;;;;14.48;81.92;99399.34;1734868;80;20950;-66
2021/10/03 07:29:04;;;;;;;11.10;8.45;;;;;;;14.45;81.93;99400.42;1735013;81;21049;-66
2021/10/03 07:31:31;;;;;;;19.25;8.30;;;;;;;14.43;81.85;99383.91;1733695;81;27054;-67
2021/10/03 07:33:58;;;;;;;12.58;8.35;;;;;;;14.39;81.46;99390.30;1736689;80;21088;-65
2021/10/03 07:36:25;;;;;;;10.65;8.13;;;;;;;14.35;81.51;99396.72;1739631;80;20946;-66
2021/10/03 07:38:51;;;;;;;9.90;7.80;;;;;;;14.37;81.58;99393.53;1736765;81;20969;-67
2021/10/03 07:41:20;;;;;;;13.18;7.08;;;;;;;14.42;81.60;99383.52;1740393;81;22410;-67
2021/10/03 07:43:48;;;;;;;23.87;21.52;;;;;;;14.49;81.39;99393.99;1728299;81;22295;-67
2021/10/03 07:46:17;;;;;;;19.27;16.12;;;;;;;14.58;81.48;99400.91;1703456;82;20986;-67
2021/10/03 07:48:44;;;;;;;11.53;10.32;;;;;;;14.76;81.64;99397.02;1665012;83;21129;-67
2021/10/03 07:51:11;;;;;;;;;;;;;;;14.83;81.01;99396.94;1681971;83;20999;-66
2021/10/03 07:53:38;;;;;;;12.77;7.70;;;;;;;14.84;80.50;99398.61;1675721;84;21311;-67
2021/10/03 07:56:05;;;;;;;10.82;8.10;;;;;;;14.71;80.05;99398.64;1698776;83;21829;-67
2021/10/03 07:58:32;;;;;;;14.47;7.03;;;;;;;14.59;79.93;99397.33;1700032;84;20926;-66
2021/10/03 08:00:59;;;;;;;9.30;6.20;;;;;;;14.46;80.02;99396.83;1699720;84;21123;-67
2021/10/03 08:03:25;;;;;;;10.88;7.37;;;;;;;14.34;79.57;99398.99;1702402;83;21015;-67
2021/10/03 08:05:52;;;;;;;9.43;7.17;;;;;;;14.28;79.45;99384.94;1680637;83;21049;-67
2021/10/03 08:08:19;;;;;;;10.27;7.50;;;;;;;14.23;79.66;99387.06;1682604;83;21076;-66
2021/10/03 08:10:46;;;;;;;9.40;6.55;;;;;;;14.21;79.64;99390.26;1676884;83;21010;-67
2021/10/03 08:13:14;;;;;;;8.93;6.37;;;;;;;14.22;79.36;99390.61;1676644;83;20978;-65
2021/10/03 08:15:48;;;;;;;15.50;6.50;;;;;;;14.17;79.13;99392.70;1669751;84;21152;-64
2021/10/03 08:18:18;;;;;;;12.45;6.15;;;;;;;14.10;79.15;99393.13;1667680;84;21598;-65
2021/10/03 08:20:47;;;;;;;8.18;6.10;;;;;;;14.13;79.31;99396.02;1672060;83;20936;-65
2021/10/03 08:23:15;;;;;;;10.23;6.20;;;;;;;14.34;79.52;99387.17;1671224;84;22310;-65
2021/10/03 08:25:42;;;;;;;9.93;6.55;;;;;;;14.63;79.78;99397.50;1669137;83;21049;-65
2021/10/03 08:28:09;;;;;;;9.85;6.35;;;;;;;14.86;79.05;99385.38;1659157;85;22324;-65
2021/10/03 08:30:35;;;;;;;7.00;5.62;;;;;;;14.88;78.59;99379.06;1663142;83;22080;-65
2021/10/03 08:33:02;;;;;;;14.05;6.28;;;;;;;14.86;78.27;99384.06;1665970;85;21022;-65
2021/10/03 08:35:30;;;;;;;10.18;6.30;;;;;;;14.89;78.09;99378.11;1657519;85;21048;-65
2021/10/03 08:37:56;;;;;;;10.28;5.47;;;;;;;14.93;78.00;99382.22;1660780;85;20949;-65
2021/10/03 08:40:23;;;;;;;9.05;6.00;;;;;;;15.02;77.91;99390.41;1665887;85;21004;-65
2021/10/03 08:42:50;;;;;;;7.95;6.40;;;;;;;15.18;78.01;99389.20;1662294;85;21353;-65
2021/10/03 08:45:17;;;;;;;7.17;5.85;;;;;;;15.33;77.67;99386.41;1667494;84;20939;-66
2021/10/03 08:47:44;;;;;;;11.55;6.30;;;;;;;15.49;77.45;99376.91;1657045;85;22100;-66
2021/10/03 08:50:14;;;;;;;8.83;5.93;;;;;;;15.62;77.52;99376.39;1660368;84;21079;-66
2021/10/03 08:52:44;;;;;;;10.50;5.65;;;;;;;15.72;76.82;99373.48;1671351;85;20967;-67
2021/10/03 08:55:13;;;;;;;7.40;5.30;;;;;;;15.69;76.20;99375.03;1669343;85;21593;-65
2021/10/03 08:57:40;;;;;;;10.00;6.00;;;;;;;15.61;75.90;99383.45;1677621;84;21007;-66
2021/10/03 09:00:19;;;;;;;15.38;6.47;;;;;;;15.54;76.26;99386.63;1663686;85;21069;-65
2021/10/03 09:03:07;;;;;;;7.67;6.33;;;;;;;15.58;76.21;99388.10;1661059;85;20985;-65
2021/10/03 09:05:40;;;;;;;10.70;5.35;;;;;;;15.66;76.32;99384.44;1665603;84;21075;-66
2021/10/03 09:08:18;;;;;;;8.83;6.33;;;;;;;15.76;76.07;99386.77;1667759;84;21072;-66
2021/10/03 09:11:04;;;;;;;6.22;5.25;;;;;;;15.85;75.68;99381.29;1669969;85;20970;-66
2021/10/03 09:13:37;;;;;;;8.80;5.85;;;;;;;16.00;75.88;99388.54;1656498;84;20929;-66
2021/10/03 09:16:18;;;;;;;7.33;6.00;;;;;;;16.12;75.57;99379.70;1665844;84;21549;-66
2021/10/03 09:18:50;;;;;;;11.83;6.90;;;;;;;16.23;75.09;99384.16;1670366;84;21011;-66
2021/10/03 09:21:38;;;;;;;34.90;21.80;;;;;;;16.34;74.90;99381.55;1663769;85;21228;-66
2021/10/03 09:26:16;;;;;;;12.35;7.55;;;;;;;16.67;75.08;99375.47;1824786;76;22759;-65
2021/10/03 09:28:43;;;;;;;13.20;11.00;;;;;;;16.77;74.60;99368.53;1747036;80;20981;-65
2021/10/03 09:31:15;;;;;;;8.00;7.17;;;;;;;16.77;73.29;99372.48;1758446;81;21109;-65
2021/10/03 09:33:57;;;;;;;8.45;5.45;;;;;;;16.84;73.46;99369.39;1752280;81;21100;-65
2021/10/03 09:36:32;;;;;;;9.20;5.17;;;;;;;16.96;73.61;99372.37;1771715;79;20950;-67
2021/10/03 09:39:08;;;;;;;6.05;5.30;;;;;;;17.02;72.95;99363.96;1745537;81;21048;-65
2021/10/03 09:41:45;;;;;;;8.03;5.70;;;;;;;17.07;73.15;99353.89;1761790;80;20929;-65
2021/10/03 09:44:16;;;;;;;6.35;4.20;;;;;;;17.09;71.33;99357.25;1769334;79;21912;-64
2021/10/03 09:46:47;;;;;;;8.15;5.10;;;;;;;16.94;71.02;99346.59;1767947;80;20952;-64
2021/10/03 09:49:30;;;;;;;9.33;5.17;;;;;;;16.96;72.39;99357.38;1770734;79;21510;-64
2021/10/03 09:51:57;;;;;;;10.45;6.22;;;;;;;16.97;72.15;99355.57;1773308;80;20986;-66
2021/10/03 09:54:26;;;;;;;8.80;5.03;;;;;;;16.90;71.03;99347.32;1773789;79;20970;-66
2021/10/03 09:56:54;;;;;;;12.85;5.35;;;;;;;16.90;71.84;99349.12;1733693;81;21064;-66
2021/10/03 09:59:21;;;;;;;6.90;4.70;;;;;;;17.03;71.38;99347.20;1754934;81;20942;-66
2021/10/03 10:01:48;;;;;;;9.33;5.28;;;;;;;17.04;71.05;99343.59;1775215;79;21002;-66
2021/10/03 10:04:19;;;;;;;12.53;5.22;;;;;;;17.00;70.82;99352.72;1804388;79;21021;-65
2021/10/03 10:06:48;;;;;;;12.20;6.40;;;;;;;17.08;71.24;99352.08;1803559;78;21083;-65
2021/10/03 10:09:19;;;;;;;12.50;6.28;;;;;;;17.13;71.04;99353.39;1805400;78;21143;-65
2021/10/03 10:11:56;;;;;;;10.25;5.55;;;;;;;17.04;70.48;99355.94;1800728;79;21072;-65
2021/10/03 10:14:32;;;;;;;6.97;5.15;;;;;;;16.99;70.37;99361.57;1802016;78;21036;-65
2021/10/03 10:17:02;;;;;;;11.40;5.75;;;;;;;16.96;68.98;99353.91;1807858;78;21014;-65
2021/10/03 10:19:36;;;;;;;9.45;4.80;;;;;;;16.90;69.96;99359.19;1808197;79;21001;-65
2021/10/03 10:22:22;;;;;;;6.62;4.90;;;;;;;16.89;69.73;99360.64;1806802;78;22108;-65
2021/10/03 10:24:59;;;;;;;9.03;5.35;;;;;;;16.89;69.62;99352.73;1807309;78;20934;-66
2021/10/03 10:27:36;;;;;;;7.57;4.97;;;;;;;16.84;68.96;99354.89;1808919;78;21490;-65
2021/10/03 10:30:16;;;;;;;10.68;4.53;;;;;;;16.84;69.11;99353.58;1806786;78;20983;-66
2021/10/03 10:33:04;;;;;;;7.28;4.62;;;;;;;16.90;68.91;99363.63;1811330;78;21065;-66
2021/10/03 10:35:34;;;;;;;10.53;4.80;;;;;;;16.96;68.74;99351.27;1809026;78;21088;-65
2021/10/03 10:38:10;;;;;;;7.97;5.20;;;;;;;17.08;68.19;99356.88;1804786;78;20971;-66
2021/10/03 10:40:38;;;;;;;9.25;5.17;;;;;;;17.20;68.20;99354.59;1807999;78;20956;-65
2021/10/03 10:43:10;;;;;;;7.67;5.00;;;;;;;17.32;67.92;99344.00;1809092;78;20987;-67
2021/10/03 10:45:41;;;;;;;8.20;5.25;;;;;;;17.42;67.53;99327.30;1802061;78;21027;-64
2021/10/03 10:48:20;;;;;;;6.95;4.87;;;;;;;17.55;67.82;99342.95;1807623;78;23252;-64
2021/10/03 10:50:55;;;;;;;5.95;4.80;;;;;;;17.63;66.84;99335.23;1811898;78;20981;-64
2021/10/03 10:53:30;;;;;;;7.37;4.70;;;;;;;17.72;66.57;99339.41;1806843;78;20942;-64
2021/10/03 10:56:17;;;;;;;10.43;5.00;;;;;;;17.81;66.98;99345.27;1807023;78;21661;-64
2021/10/03 10:58:58;;;;;;;9.20;5.37;;;;;;;17.88;66.86;99333.23;1807331;78;21611;-64
2021/10/03 11:01:36;;;;;;;9.65;4.80;;;;;;;17.92;65.82;99316.15;1807050;78;21466;-65
2021/10/03 11:04:14;;;;;;;8.23;5.25;;;;;;;17.94;65.66;99326.11;1806391;78;21020;-66
2021/10/03 11:06:47;;;;;;;;;;;;;;;17.99;65.39;99324.41;1809065;78;21553;-66
2021/10/03 11:09:16;;;;;;;5.70;4.80;;;;;;;18.06;65.62;99329.52;1802026;78;20159;-65
2021/10/03 11:12:00;;;;;;;9.55;5.28;;;;;;;18.10;65.46;99317.25;1777471;78;21044;-66
2021/10/03 11:14:28;;;;;;;7.33;4.62;;;;;;;18.04;65.44;99320.42;1807112;78;21032;-67
2021/10/03 11:17:03;;;;;;;10.23;5.60;;;;;;;17.98;64.72;99301.13;1811784;78;21638;-67
2021/10/03 11:19:44;;;;;;;12.00;6.00;;;;;;;17.93;64.88;99315.20;1805481;78;21368;-66
2021/10/03 11:22:20;;;;;;;8.18;5.55;;;;;;;18.03;65.04;99314.77;1804041;78;20995;-66
2021/10/03 11:24:54;;;;;;;7.95;4.58;;;;;;;18.20;65.22;99316.45;1805069;78;20963;-66
2021/10/03 11:27:30;;;;;;;10.85;5.20;;;;;;;18.33;64.45;99315.77;1803995;78;21135;-66
2021/10/03 11:30:00;;;;;;;17.35;4.90;;;;;;;18.45;63.75;99306.77;1801508;78;20935;-66
2021/10/03 11:32:34;;;;;;;8.33;5.42;;;;;;;18.51;63.56;99306.72;1807344;78;20891;-67
2021/10/03 11:35:16;;;;;;;6.78;4.80;;;;;;;18.60;64.00;99302.44;1813959;78;20935;-66
2021/10/03 11:37:44;;;;;;;8.60;5.47;;;;;;;18.66;62.82;99312.50;1804186;78;21047;-66